sensor_id;sensor_type;location;lat;lon;timestamp;P1;durP1;ratioP1;P2;durP2;ratioP2
2486;SDS011;1254;49.144;8.212;2023-04-19T00:00:12;13.40;;;10.40;;
2486;SDS011;1254;49.144;8.212;2023-04-19T00:02:40;13.57;;;10.98;;
2486;SDS011;1254;49.144;8.212;2023-04-19T00:05:08;13.57;;;10.98;;
2486;SDS011;1254;49.144;8.212;2023-04-19T00:07:38;12.73;;;10.35;;
2486;SDS011;1254;49.144;8.212;2023-04-19T00:10:08;12.63;;;11.23;;
2486;SDS011;1254;49.144;8.212;2023-04-19T00:12:36;14.95;;;11.20;;
2486;SDS011;1254;49.144;8.212;2023-04-19T00:15:05;14.15;;;11.52;;
2486;SDS011;1254;49.144;8.212;2023-04-19T00:17:33;11.75;;;10.55;;
2486;SDS011;1254;49.144;8.212;2023-04-19T00:20:02;12.32;;;10.98;;
2486;SDS011;1254;49.144;8.212;2023-04-19T00:22:31;15.30;;;11.80;;
2486;SDS011;1254;49.144;8.212;2023-04-19T00:24:59;12.43;;;10.57;;
2486;SDS011;1254;49.144;8.212;2023-04-19T00:27:29;16.90;;;12.07;;
2486;SDS011;1254;49.144;8.212;2023-04-19T00:30:01;15.15;;;11.98;;
2486;SDS011;1254;49.144;8.212;2023-04-19T00:32:31;13.30;;;10.57;;
2486;SDS011;1254;49.144;8.212;2023-04-19T00:34:59;13.68;;;11.52;;
2486;SDS011;1254;49.144;8.212;2023-04-19T00:37:30;13.95;;;11.55;;
2486;SDS011;1254;49.144;8.212;2023-04-19T00:39:59;14.90;;;10.63;;
2486;SDS011;1254;49.144;8.212;2023-04-19T00:42:28;15.15;;;11.45;;
2486;SDS011;1254;49.144;8.212;2023-04-19T00:44:56;12.35;;;10.55;;
2486;SDS011;1254;49.144;8.212;2023-04-19T00:47:24;12.60;;;9.95;;
2486;SDS011;1254;49.144;8.212;2023-04-19T00:49:53;12.23;;;10.90;;
2486;SDS011;1254;49.144;8.212;2023-04-19T00:52:21;15.85;;;10.40;;
2486;SDS011;1254;49.144;8.212;2023-04-19T00:54:50;12.98;;;10.85;;
2486;SDS011;1254;49.144;8.212;2023-04-19T00:57:20;12.30;;;10.57;;
2486;SDS011;1254;49.144;8.212;2023-04-19T00:59:51;12.65;;;10.18;;
2486;SDS011;1254;49.144;8.212;2023-04-19T01:02:19;14.65;;;10.15;;
2486;SDS011;1254;49.144;8.212;2023-04-19T01:04:49;14.75;;;11.90;;
2486;SDS011;1254;49.144;8.212;2023-04-19T01:07:17;14.27;;;10.10;;
2486;SDS011;1254;49.144;8.212;2023-04-19T01:09:46;14.95;;;10.75;;
2486;SDS011;1254;49.144;8.212;2023-04-19T01:12:14;13.65;;;10.60;;
2486;SDS011;1254;49.144;8.212;2023-04-19T01:14:42;12.15;;;10.85;;
2486;SDS011;1254;49.144;8.212;2023-04-19T01:17:12;14.82;;;10.18;;
2486;SDS011;1254;49.144;8.212;2023-04-19T01:19:40;14.05;;;10.93;;
2486;SDS011;1254;49.144;8.212;2023-04-19T01:22:09;14.30;;;11.25;;
2486;SDS011;1254;49.144;8.212;2023-04-19T01:24:38;12.48;;;10.30;;
2486;SDS011;1254;49.144;8.212;2023-04-19T01:27:08;12.30;;;10.45;;
2486;SDS011;1254;49.144;8.212;2023-04-19T01:29:36;13.85;;;10.90;;
2486;SDS011;1254;49.144;8.212;2023-04-19T01:32:04;13.48;;;11.05;;
2486;SDS011;1254;49.144;8.212;2023-04-19T01:34:33;12.63;;;10.98;;
2486;SDS011;1254;49.144;8.212;2023-04-19T01:37:03;13.32;;;11.55;;
2486;SDS011;1254;49.144;8.212;2023-04-19T01:39:33;16.02;;;10.80;;
2486;SDS011;1254;49.144;8.212;2023-04-19T01:42:02;15.27;;;11.65;;
2486;SDS011;1254;49.144;8.212;2023-04-19T01:44:31;13.45;;;10.65;;
2486;SDS011;1254;49.144;8.212;2023-04-19T01:46:59;13.23;;;10.38;;
2486;SDS011;1254;49.144;8.212;2023-04-19T01:49:27;13.85;;;11.75;;
2486;SDS011;1254;49.144;8.212;2023-04-19T01:51:56;15.27;;;11.48;;
2486;SDS011;1254;49.144;8.212;2023-04-19T01:54:24;12.95;;;10.77;;
2486;SDS011;1254;49.144;8.212;2023-04-19T01:56:53;14.10;;;11.10;;
2486;SDS011;1254;49.144;8.212;2023-04-19T01:59:22;12.70;;;9.93;;
2486;SDS011;1254;49.144;8.212;2023-04-19T02:01:50;12.27;;;10.75;;
2486;SDS011;1254;49.144;8.212;2023-04-19T02:04:19;12.88;;;10.98;;
2486;SDS011;1254;49.144;8.212;2023-04-19T02:06:47;12.07;;;10.05;;
2486;SDS011;1254;49.144;8.212;2023-04-19T02:09:16;11.52;;;9.65;;
2486;SDS011;1254;49.144;8.212;2023-04-19T02:11:45;10.98;;;9.60;;
2486;SDS011;1254;49.144;8.212;2023-04-19T02:14:13;13.10;;;10.45;;
2486;SDS011;1254;49.144;8.212;2023-04-19T02:16:43;13.60;;;11.65;;
2486;SDS011;1254;49.144;8.212;2023-04-19T02:19:11;16.75;;;10.60;;
2486;SDS011;1254;49.144;8.212;2023-04-19T02:21:39;11.30;;;10.07;;
2486;SDS011;1254;49.144;8.212;2023-04-19T02:24:07;11.60;;;10.20;;
2486;SDS011;1254;49.144;8.212;2023-04-19T02:26:36;11.32;;;10.13;;
2486;SDS011;1254;49.144;8.212;2023-04-19T02:29:04;12.77;;;9.68;;
2486;SDS011;1254;49.144;8.212;2023-04-19T02:31:32;15.35;;;11.65;;
2486;SDS011;1254;49.144;8.212;2023-04-19T02:34:02;11.25;;;9.98;;
2486;SDS011;1254;49.144;8.212;2023-04-19T02:36:32;11.73;;;10.25;;
2486;SDS011;1254;49.144;8.212;2023-04-19T02:39:02;15.13;;;11.50;;
2486;SDS011;1254;49.144;8.212;2023-04-19T02:41:30;12.60;;;10.68;;
2486;SDS011;1254;49.144;8.212;2023-04-19T02:44:01;11.38;;;10.18;;
2486;SDS011;1254;49.144;8.212;2023-04-19T02:46:29;12.85;;;10.77;;
2486;SDS011;1254;49.144;8.212;2023-04-19T02:48:59;12.13;;;9.63;;
2486;SDS011;1254;49.144;8.212;2023-04-19T02:51:28;11.38;;;9.82;;
2486;SDS011;1254;49.144;8.212;2023-04-19T02:53:57;12.75;;;10.27;;
2486;SDS011;1254;49.144;8.212;2023-04-19T02:56:25;10.52;;;9.20;;
2486;SDS011;1254;49.144;8.212;2023-04-19T02:58:54;11.50;;;10.40;;
2486;SDS011;1254;49.144;8.212;2023-04-19T03:01:22;11.75;;;9.60;;
2486;SDS011;1254;49.144;8.212;2023-04-19T03:03:50;11.30;;;10.20;;
2486;SDS011;1254;49.144;8.212;2023-04-19T03:06:19;11.48;;;9.25;;
2486;SDS011;1254;49.144;8.212;2023-04-19T03:08:48;12.57;;;10.13;;
2486;SDS011;1254;49.144;8.212;2023-04-19T03:11:18;11.98;;;10.70;;
2486;SDS011;1254;49.144;8.212;2023-04-19T03:13:46;10.88;;;9.20;;
2486;SDS011;1254;49.144;8.212;2023-04-19T03:16:14;10.23;;;8.98;;
2486;SDS011;1254;49.144;8.212;2023-04-19T03:18:43;9.98;;;8.75;;
2486;SDS011;1254;49.144;8.212;2023-04-19T03:21:12;10.60;;;8.48;;
2486;SDS011;1254;49.144;8.212;2023-04-19T03:23:49;11.23;;;9.60;;
2486;SDS011;1254;49.144;8.212;2023-04-19T03:26:18;10.35;;;9.23;;
2486;SDS011;1254;49.144;8.212;2023-04-19T03:28:50;9.90;;;8.68;;
2486;SDS011;1254;49.144;8.212;2023-04-19T03:31:47;10.10;;;9.10;;
2486;SDS011;1254;49.144;8.212;2023-04-19T03:34:17;10.65;;;9.55;;
2486;SDS011;1254;49.144;8.212;2023-04-19T03:36:47;11.32;;;10.05;;
2486;SDS011;1254;49.144;8.212;2023-04-19T03:39:17;9.88;;;8.68;;
2486;SDS011;1254;49.144;8.212;2023-04-19T03:41:49;9.65;;;8.65;;
2486;SDS011;1254;49.144;8.212;2023-04-19T03:44:37;9.90;;;9.00;;
2486;SDS011;1254;49.144;8.212;2023-04-19T03:47:07;10.50;;;9.20;;
2486;SDS011;1254;49.144;8.212;2023-04-19T03:49:41;9.98;;;8.98;;
2486;SDS011;1254;49.144;8.212;2023-04-19T03:52:09;9.77;;;8.88;;
2486;SDS011;1254;49.144;8.212;2023-04-19T03:54:39;10.20;;;9.20;;
2486;SDS011;1254;49.144;8.212;2023-04-19T03:57:15;12.65;;;9.05;;
2486;SDS011;1254;49.144;8.212;2023-04-19T03:59:43;13.43;;;10.32;;
2486;SDS011;1254;49.144;8.212;2023-04-19T04:02:11;11.18;;;9.95;;
2486;SDS011;1254;49.144;8.212;2023-04-19T04:04:40;10.88;;;9.40;;
2486;SDS011;1254;49.144;8.212;2023-04-19T04:07:08;10.60;;;9.60;;
2486;SDS011;1254;49.144;8.212;2023-04-19T04:09:36;8.65;;;7.65;;
2486;SDS011;1254;49.144;8.212;2023-04-19T04:12:06;12.95;;;9.40;;
2486;SDS011;1254;49.144;8.212;2023-04-19T04:14:34;12.77;;;8.82;;
2486;SDS011;1254;49.144;8.212;2023-04-19T04:17:04;9.60;;;8.60;;
2486;SDS011;1254;49.144;8.212;2023-04-19T04:19:33;11.52;;;10.13;;
2486;SDS011;1254;49.144;8.212;2023-04-19T04:22:02;10.73;;;8.55;;
2486;SDS011;1254;49.144;8.212;2023-04-19T04:24:36;11.10;;;9.48;;
2486;SDS011;1254;49.144;8.212;2023-04-19T04:27:19;9.80;;;8.90;;
2486;SDS011;1254;49.144;8.212;2023-04-19T04:29:49;9.65;;;8.40;;
2486;SDS011;1254;49.144;8.212;2023-04-19T04:32:17;12.57;;;11.25;;
2486;SDS011;1254;49.144;8.212;2023-04-19T04:34:48;9.88;;;8.35;;
2486;SDS011;1254;49.144;8.212;2023-04-19T04:37:25;10.95;;;8.60;;
2486;SDS011;1254;49.144;8.212;2023-04-19T04:39:55;9.60;;;8.60;;
2486;SDS011;1254;49.144;8.212;2023-04-19T04:42:25;9.07;;;8.27;;
2486;SDS011;1254;49.144;8.212;2023-04-19T04:44:56;10.43;;;9.43;;
2486;SDS011;1254;49.144;8.212;2023-04-19T04:47:29;10.10;;;9.10;;
2486;SDS011;1254;49.144;8.212;2023-04-19T04:50:00;10.18;;;9.18;;
2486;SDS011;1254;49.144;8.212;2023-04-19T04:52:29;9.98;;;8.70;;
2486;SDS011;1254;49.144;8.212;2023-04-19T04:55:08;9.13;;;8.00;;
2486;SDS011;1254;49.144;8.212;2023-04-19T04:57:42;10.15;;;9.15;;
2486;SDS011;1254;49.144;8.212;2023-04-19T05:00:21;10.63;;;9.20;;
2486;SDS011;1254;49.144;8.212;2023-04-19T05:03:02;9.50;;;8.52;;
2486;SDS011;1254;49.144;8.212;2023-04-19T05:05:35;11.75;;;8.45;;
2486;SDS011;1254;49.144;8.212;2023-04-19T05:08:03;11.90;;;8.70;;
2486;SDS011;1254;49.144;8.212;2023-04-19T05:10:32;10.35;;;9.25;;
2486;SDS011;1254;49.144;8.212;2023-04-19T05:13:02;12.90;;;9.27;;
2486;SDS011;1254;49.144;8.212;2023-04-19T05:15:31;10.10;;;8.65;;
2486;SDS011;1254;49.144;8.212;2023-04-19T05:18:00;11.85;;;9.18;;
2486;SDS011;1254;49.144;8.212;2023-04-19T05:20:29;9.63;;;8.70;;
2486;SDS011;1254;49.144;8.212;2023-04-19T05:23:05;11.68;;;9.15;;
2486;SDS011;1254;49.144;8.212;2023-04-19T05:25:36;12.00;;;10.45;;
2486;SDS011;1254;49.144;8.212;2023-04-19T05:28:06;14.18;;;8.82;;
2486;SDS011;1254;49.144;8.212;2023-04-19T05:30:43;15.68;;;10.93;;
2486;SDS011;1254;49.144;8.212;2023-04-19T05:33:12;12.55;;;9.40;;
2486;SDS011;1254;49.144;8.212;2023-04-19T05:35:40;10.93;;;9.82;;
2486;SDS011;1254;49.144;8.212;2023-04-19T05:38:08;12.02;;;10.45;;
2486;SDS011;1254;49.144;8.212;2023-04-19T05:40:37;12.48;;;10.15;;
2486;SDS011;1254;49.144;8.212;2023-04-19T05:43:07;11.77;;;10.48;;
2486;SDS011;1254;49.144;8.212;2023-04-19T05:45:36;11.82;;;9.93;;
2486;SDS011;1254;49.144;8.212;2023-04-19T05:48:04;11.10;;;10.00;;
2486;SDS011;1254;49.144;8.212;2023-04-19T05:50:56;10.48;;;9.38;;
2486;SDS011;1254;49.144;8.212;2023-04-19T05:53:34;13.52;;;9.90;;
2486;SDS011;1254;49.144;8.212;2023-04-19T05:56:03;11.65;;;10.13;;
2486;SDS011;1254;49.144;8.212;2023-04-19T05:58:33;11.85;;;10.30;;
2486;SDS011;1254;49.144;8.212;2023-04-19T06:01:02;9.55;;;8.43;;
2486;SDS011;1254;49.144;8.212;2023-04-19T06:03:33;9.50;;;8.50;;
2486;SDS011;1254;49.144;8.212;2023-04-19T06:06:01;11.38;;;8.90;;
2486;SDS011;1254;49.144;8.212;2023-04-19T06:08:29;10.82;;;9.70;;
2486;SDS011;1254;49.144;8.212;2023-04-19T06:10:58;10.18;;;8.77;;
2486;SDS011;1254;49.144;8.212;2023-04-19T06:13:26;11.55;;;8.95;;
2486;SDS011;1254;49.144;8.212;2023-04-19T06:15:56;11.68;;;10.18;;
2486;SDS011;1254;49.144;8.212;2023-04-19T06:18:25;10.15;;;9.15;;
2486;SDS011;1254;49.144;8.212;2023-04-19T06:20:53;11.52;;;9.82;;
2486;SDS011;1254;49.144;8.212;2023-04-19T06:23:21;10.35;;;8.70;;
2486;SDS011;1254;49.144;8.212;2023-04-19T06:25:50;8.52;;;7.70;;
2486;SDS011;1254;49.144;8.212;2023-04-19T06:28:18;12.75;;;8.80;;
2486;SDS011;1254;49.144;8.212;2023-04-19T06:30:47;10.13;;;9.10;;
2486;SDS011;1254;49.144;8.212;2023-04-19T06:33:16;8.52;;;7.45;;
2486;SDS011;1254;49.144;8.212;2023-04-19T06:35:45;9.98;;;8.57;;
2486;SDS011;1254;49.144;8.212;2023-04-19T06:38:13;13.15;;;9.40;;
2486;SDS011;1254;49.144;8.212;2023-04-19T06:40:41;10.02;;;9.02;;
2486;SDS011;1254;49.144;8.212;2023-04-19T06:43:09;16.42;;;9.82;;
2486;SDS011;1254;49.144;8.212;2023-04-19T06:45:38;11.45;;;9.60;;
2486;SDS011;1254;49.144;8.212;2023-04-19T06:48:06;9.82;;;8.82;;
2486;SDS011;1254;49.144;8.212;2023-04-19T06:50:36;11.30;;;10.07;;
2486;SDS011;1254;49.144;8.212;2023-04-19T06:53:04;9.90;;;8.90;;
2486;SDS011;1254;49.144;8.212;2023-04-19T06:55:32;10.53;;;8.77;;
2486;SDS011;1254;49.144;8.212;2023-04-19T06:58:00;10.85;;;9.75;;
2486;SDS011;1254;49.144;8.212;2023-04-19T07:00:28;9.98;;;8.98;;
2486;SDS011;1254;49.144;8.212;2023-04-19T07:02:57;10.63;;;9.52;;
2486;SDS011;1254;49.144;8.212;2023-04-19T07:05:26;11.20;;;9.52;;
2486;SDS011;1254;49.144;8.212;2023-04-19T07:07:56;9.35;;;8.50;;
2486;SDS011;1254;49.144;8.212;2023-04-19T07:10:24;10.70;;;9.60;;
2486;SDS011;1254;49.144;8.212;2023-04-19T07:12:52;10.80;;;9.70;;
2486;SDS011;1254;49.144;8.212;2023-04-19T07:15:20;10.97;;;9.87;;
2486;SDS011;1254;49.144;8.212;2023-04-19T07:17:49;12.23;;;10.05;;
2486;SDS011;1254;49.144;8.212;2023-04-19T07:20:17;10.83;;;9.60;;
2486;SDS011;1254;49.144;8.212;2023-04-19T07:22:45;11.43;;;10.32;;
2486;SDS011;1254;49.144;8.212;2023-04-19T07:25:15;11.50;;;10.30;;
2486;SDS011;1254;49.144;8.212;2023-04-19T07:27:43;11.80;;;10.55;;
2486;SDS011;1254;49.144;8.212;2023-04-19T07:30:11;11.07;;;9.93;;
2486;SDS011;1254;49.144;8.212;2023-04-19T07:32:39;10.82;;;9.73;;
2486;SDS011;1254;49.144;8.212;2023-04-19T07:35:08;11.07;;;10.00;;
2486;SDS011;1254;49.144;8.212;2023-04-19T07:37:36;11.47;;;10.07;;
2486;SDS011;1254;49.144;8.212;2023-04-19T07:40:05;11.30;;;10.20;;
2486;SDS011;1254;49.144;8.212;2023-04-19T07:42:35;11.13;;;10.10;;
2486;SDS011;1254;49.144;8.212;2023-04-19T07:45:03;11.30;;;10.20;;
2486;SDS011;1254;49.144;8.212;2023-04-19T07:47:32;12.13;;;9.37;;
2486;SDS011;1254;49.144;8.212;2023-04-19T07:50:00;11.27;;;10.07;;
2486;SDS011;1254;49.144;8.212;2023-04-19T07:52:30;10.30;;;9.30;;
2486;SDS011;1254;49.144;8.212;2023-04-19T07:54:59;10.43;;;9.17;;
2486;SDS011;1254;49.144;8.212;2023-04-19T07:57:27;10.43;;;9.53;;
2486;SDS011;1254;49.144;8.212;2023-04-19T07:59:56;12.57;;;10.60;;
2486;SDS011;1254;49.144;8.212;2023-04-19T08:02:25;11.57;;;10.40;;
2486;SDS011;1254;49.144;8.212;2023-04-19T08:04:53;10.57;;;9.57;;
2486;SDS011;1254;49.144;8.212;2023-04-19T08:07:22;13.03;;;9.93;;
2486;SDS011;1254;49.144;8.212;2023-04-19T08:09:51;16.13;;;10.50;;
2486;SDS011;1254;49.144;8.212;2023-04-19T08:12:19;13.33;;;10.93;;
2486;SDS011;1254;49.144;8.212;2023-04-19T08:14:47;11.20;;;10.17;;
2486;SDS011;1254;49.144;8.212;2023-04-19T08:17:17;11.73;;;10.70;;
2486;SDS011;1254;49.144;8.212;2023-04-19T08:19:46;11.50;;;10.50;;
2486;SDS011;1254;49.144;8.212;2023-04-19T08:22:15;11.40;;;10.40;;
2486;SDS011;1254;49.144;8.212;2023-04-19T08:24:43;12.53;;;11.47;;
2486;SDS011;1254;49.144;8.212;2023-04-19T08:27:11;11.13;;;9.97;;
2486;SDS011;1254;49.144;8.212;2023-04-19T08:29:39;12.50;;;11.50;;
2486;SDS011;1254;49.144;8.212;2023-04-19T08:32:08;12.77;;;11.40;;
2486;SDS011;1254;49.144;8.212;2023-04-19T08:34:38;11.67;;;10.67;;
2486;SDS011;1254;49.144;8.212;2023-04-19T08:37:06;11.90;;;10.90;;
2486;SDS011;1254;49.144;8.212;2023-04-19T08:39:34;11.23;;;10.33;;
2486;SDS011;1254;49.144;8.212;2023-04-19T08:42:03;11.40;;;10.30;;
2486;SDS011;1254;49.144;8.212;2023-04-19T08:44:32;11.60;;;10.60;;
2486;SDS011;1254;49.144;8.212;2023-04-19T08:47:00;12.70;;;11.60;;
2486;SDS011;1254;49.144;8.212;2023-04-19T08:49:28;13.67;;;12.30;;
2486;SDS011;1254;49.144;8.212;2023-04-19T08:51:58;12.57;;;11.57;;
2486;SDS011;1254;49.144;8.212;2023-04-19T08:54:27;12.33;;;11.23;;
2486;SDS011;1254;49.144;8.212;2023-04-19T08:56:56;11.60;;;10.50;;
2486;SDS011;1254;49.144;8.212;2023-04-19T08:59:25;11.20;;;10.10;;
2486;SDS011;1254;49.144;8.212;2023-04-19T09:01:53;10.70;;;9.70;;
2486;SDS011;1254;49.144;8.212;2023-04-19T09:04:24;11.50;;;10.40;;
2486;SDS011;1254;49.144;8.212;2023-04-19T09:06:52;10.20;;;9.30;;
2486;SDS011;1254;49.144;8.212;2023-04-19T09:09:22;12.40;;;10.35;;
2486;SDS011;1254;49.144;8.212;2023-04-19T09:11:51;9.70;;;8.90;;
2486;SDS011;1254;49.144;8.212;2023-04-19T09:14:20;10.50;;;9.40;;
2486;SDS011;1254;49.144;8.212;2023-04-19T09:16:49;10.70;;;9.60;;
2486;SDS011;1254;49.144;8.212;2023-04-19T09:19:18;10.50;;;9.45;;
2486;SDS011;1254;49.144;8.212;2023-04-19T09:21:46;11.38;;;9.40;;
2486;SDS011;1254;49.144;8.212;2023-04-19T09:24:16;11.87;;;10.63;;
2486;SDS011;1254;49.144;8.212;2023-04-19T09:26:53;12.33;;;9.43;;
2486;SDS011;1254;49.144;8.212;2023-04-19T09:29:23;11.33;;;10.20;;
2486;SDS011;1254;49.144;8.212;2023-04-19T09:31:55;16.40;;;11.50;;
2486;SDS011;1254;49.144;8.212;2023-04-19T09:34:24;10.02;;;9.13;;
2486;SDS011;1254;49.144;8.212;2023-04-19T09:36:53;11.50;;;10.32;;
2486;SDS011;1254;49.144;8.212;2023-04-19T09:39:27;12.27;;;10.60;;
2486;SDS011;1254;49.144;8.212;2023-04-19T09:41:57;13.30;;;11.95;;
2486;SDS011;1254;49.144;8.212;2023-04-19T09:44:25;12.93;;;11.50;;
2486;SDS011;1254;49.144;8.212;2023-04-19T09:46:53;13.65;;;11.20;;
2486;SDS011;1254;49.144;8.212;2023-04-19T09:49:22;13.23;;;9.73;;
2486;SDS011;1254;49.144;8.212;2023-04-19T09:51:52;10.43;;;9.33;;
2486;SDS011;1254;49.144;8.212;2023-04-19T09:54:23;12.30;;;10.52;;
2486;SDS011;1254;49.144;8.212;2023-04-19T09:56:52;14.03;;;9.40;;
2486;SDS011;1254;49.144;8.212;2023-04-19T09:59:22;11.90;;;10.13;;
2486;SDS011;1254;49.144;8.212;2023-04-19T10:01:51;12.80;;;10.63;;
2486;SDS011;1254;49.144;8.212;2023-04-19T10:04:21;10.90;;;9.90;;
2486;SDS011;1254;49.144;8.212;2023-04-19T10:06:49;11.83;;;9.60;;
2486;SDS011;1254;49.144;8.212;2023-04-19T10:09:18;18.93;;;11.10;;
2486;SDS011;1254;49.144;8.212;2023-04-19T10:11:47;12.03;;;10.30;;
2486;SDS011;1254;49.144;8.212;2023-04-19T10:14:16;11.30;;;10.20;;
2486;SDS011;1254;49.144;8.212;2023-04-19T10:16:48;11.30;;;10.20;;
2486;SDS011;1254;49.144;8.212;2023-04-19T10:19:16;10.80;;;9.70;;
2486;SDS011;1254;49.144;8.212;2023-04-19T10:21:45;13.13;;;11.67;;
2486;SDS011;1254;49.144;8.212;2023-04-19T10:24:14;12.03;;;10.83;;
2486;SDS011;1254;49.144;8.212;2023-04-19T10:32:18;12.67;;;11.47;;
2486;SDS011;1254;49.144;8.212;2023-04-19T10:34:46;11.30;;;10.30;;
2486;SDS011;1254;49.144;8.212;2023-04-19T10:37:14;11.63;;;10.53;;
2486;SDS011;1254;49.144;8.212;2023-04-19T10:39:43;11.80;;;10.80;;
2486;SDS011;1254;49.144;8.212;2023-04-19T10:42:11;12.03;;;10.23;;
2486;SDS011;1254;49.144;8.212;2023-04-19T10:44:39;11.83;;;10.63;;
2486;SDS011;1254;49.144;8.212;2023-04-19T10:47:07;11.83;;;9.70;;
2486;SDS011;1254;49.144;8.212;2023-04-19T10:49:44;13.23;;;12.03;;
2486;SDS011;1254;49.144;8.212;2023-04-19T10:52:25;20.30;;;10.30;;
2486;SDS011;1254;49.144;8.212;2023-04-19T10:54:55;12.30;;;11.00;;
2486;SDS011;1254;49.144;8.212;2023-04-19T10:57:23;12.07;;;11.07;;
2486;SDS011;1254;49.144;8.212;2023-04-19T11:02:36;12.07;;;10.97;;
2486;SDS011;1254;49.144;8.212;2023-04-19T11:05:06;17.50;;;11.47;;
2486;SDS011;1254;49.144;8.212;2023-04-19T11:07:37;14.67;;;10.90;;
2486;SDS011;1254;49.144;8.212;2023-04-19T11:10:07;13.83;;;11.77;;
2486;SDS011;1254;49.144;8.212;2023-04-19T11:12:36;17.10;;;11.10;;
2486;SDS011;1254;49.144;8.212;2023-04-19T11:15:05;13.37;;;10.50;;
2486;SDS011;1254;49.144;8.212;2023-04-19T11:17:34;12.15;;;11.15;;
2486;SDS011;1254;49.144;8.212;2023-04-19T11:20:07;12.70;;;10.93;;
2486;SDS011;1254;49.144;8.212;2023-04-19T11:22:36;13.05;;;11.80;;
2486;SDS011;1254;49.144;8.212;2023-04-19T11:25:06;13.00;;;10.70;;
2486;SDS011;1254;49.144;8.212;2023-04-19T11:27:34;12.13;;;10.83;;
2486;SDS011;1254;49.144;8.212;2023-04-19T11:30:03;13.48;;;12.10;;
2486;SDS011;1254;49.144;8.212;2023-04-19T11:32:32;12.55;;;10.75;;
2486;SDS011;1254;49.144;8.212;2023-04-19T11:35:08;13.13;;;10.10;;
2486;SDS011;1254;49.144;8.212;2023-04-19T11:37:37;11.90;;;10.53;;
2486;SDS011;1254;49.144;8.212;2023-04-19T11:40:06;12.00;;;10.90;;
2486;SDS011;1254;49.144;8.212;2023-04-19T11:42:34;14.75;;;11.30;;
2486;SDS011;1254;49.144;8.212;2023-04-19T11:45:03;11.02;;;9.93;;
2486;SDS011;1254;49.144;8.212;2023-04-19T11:47:31;13.43;;;11.88;;
2486;SDS011;1254;49.144;8.212;2023-04-19T11:52:50;13.23;;;9.90;;
2486;SDS011;1254;49.144;8.212;2023-04-19T11:55:19;11.40;;;10.30;;
2486;SDS011;1254;49.144;8.212;2023-04-19T11:57:47;12.27;;;11.07;;
2486;SDS011;1254;49.144;8.212;2023-04-19T12:00:17;13.27;;;10.52;;
2486;SDS011;1254;49.144;8.212;2023-04-19T12:02:54;14.13;;;9.83;;
2486;SDS011;1254;49.144;8.212;2023-04-19T12:05:22;10.63;;;9.73;;
2486;SDS011;1254;49.144;8.212;2023-04-19T12:07:59;12.33;;;11.10;;
2486;SDS011;1254;49.144;8.212;2023-04-19T12:10:27;11.60;;;10.07;;
2486;SDS011;1254;49.144;8.212;2023-04-19T12:12:56;11.27;;;10.07;;
2486;SDS011;1254;49.144;8.212;2023-04-19T12:15:39;11.70;;;10.33;;
2486;SDS011;1254;49.144;8.212;2023-04-19T12:18:07;11.73;;;10.57;;
2486;SDS011;1254;49.144;8.212;2023-04-19T12:20:37;11.27;;;10.20;;
2486;SDS011;1254;49.144;8.212;2023-04-19T12:23:06;11.80;;;10.30;;
2486;SDS011;1254;49.144;8.212;2023-04-19T12:25:36;12.77;;;10.70;;
2486;SDS011;1254;49.144;8.212;2023-04-19T12:28:04;11.53;;;10.37;;
2486;SDS011;1254;49.144;8.212;2023-04-19T12:30:33;16.90;;;10.67;;
2486;SDS011;1254;49.144;8.212;2023-04-19T12:33:02;10.60;;;9.50;;
2486;SDS011;1254;49.144;8.212;2023-04-19T12:35:30;12.07;;;10.83;;
2486;SDS011;1254;49.144;8.212;2023-04-19T12:37:59;12.87;;;10.90;;
2486;SDS011;1254;49.144;8.212;2023-04-19T12:40:29;11.27;;;9.50;;
2486;SDS011;1254;49.144;8.212;2023-04-19T12:42:57;15.93;;;10.47;;
2486;SDS011;1254;49.144;8.212;2023-04-19T12:45:26;13.40;;;11.30;;
2486;SDS011;1254;49.144;8.212;2023-04-19T12:47:54;11.80;;;10.47;;
2486;SDS011;1254;49.144;8.212;2023-04-19T12:50:22;11.10;;;9.63;;
2486;SDS011;1254;49.144;8.212;2023-04-19T12:52:50;11.47;;;10.43;;
2486;SDS011;1254;49.144;8.212;2023-04-19T12:55:19;12.10;;;10.87;;
2486;SDS011;1254;49.144;8.212;2023-04-19T12:57:48;14.60;;;10.03;;
2486;SDS011;1254;49.144;8.212;2023-04-19T13:00:16;12.93;;;10.73;;
2486;SDS011;1254;49.144;8.212;2023-04-19T13:02:45;12.17;;;10.13;;
2486;SDS011;1254;49.144;8.212;2023-04-19T13:05:14;14.00;;;11.00;;
2486;SDS011;1254;49.144;8.212;2023-04-19T13:07:42;12.43;;;11.23;;
2486;SDS011;1254;49.144;8.212;2023-04-19T13:10:10;12.53;;;11.43;;
2486;SDS011;1254;49.144;8.212;2023-04-19T13:12:38;12.77;;;11.43;;
2486;SDS011;1254;49.144;8.212;2023-04-19T13:15:09;12.07;;;10.97;;
2486;SDS011;1254;49.144;8.212;2023-04-19T13:17:37;12.00;;;11.07;;
2486;SDS011;1254;49.144;8.212;2023-04-19T13:20:06;12.70;;;11.53;;
2486;SDS011;1254;49.144;8.212;2023-04-19T13:22:34;13.50;;;12.30;;
2486;SDS011;1254;49.144;8.212;2023-04-19T13:25:02;13.30;;;11.57;;
2486;SDS011;1254;49.144;8.212;2023-04-19T13:27:31;12.67;;;11.57;;
2486;SDS011;1254;49.144;8.212;2023-04-19T13:29:59;13.33;;;12.23;;
2486;SDS011;1254;49.144;8.212;2023-04-19T13:32:28;13.30;;;12.17;;
2486;SDS011;1254;49.144;8.212;2023-04-19T13:34:57;12.83;;;11.60;;
2486;SDS011;1254;49.144;8.212;2023-04-19T13:37:25;14.23;;;12.83;;
2486;SDS011;1254;49.144;8.212;2023-04-19T13:39:54;11.30;;;10.50;;
2486;SDS011;1254;49.144;8.212;2023-04-19T13:42:22;17.10;;;11.50;;
2486;SDS011;1254;49.144;8.212;2023-04-19T13:44:50;13.40;;;12.20;;
2486;SDS011;1254;49.144;8.212;2023-04-19T13:47:19;16.23;;;10.97;;
2486;SDS011;1254;49.144;8.212;2023-04-19T13:49:48;12.20;;;11.10;;
2486;SDS011;1254;49.144;8.212;2023-04-19T13:52:17;13.27;;;12.10;;
2486;SDS011;1254;49.144;8.212;2023-04-19T13:54:45;16.03;;;12.40;;
2486;SDS011;1254;49.144;8.212;2023-04-19T13:57:13;13.13;;;12.03;;
2486;SDS011;1254;49.144;8.212;2023-04-19T13:59:42;13.10;;;12.10;;
2486;SDS011;1254;49.144;8.212;2023-04-19T14:02:10;13.33;;;12.03;;
2486;SDS011;1254;49.144;8.212;2023-04-19T14:04:38;14.00;;;11.87;;
2486;SDS011;1254;49.144;8.212;2023-04-19T14:07:07;13.67;;;12.40;;
2486;SDS011;1254;49.144;8.212;2023-04-19T14:09:36;13.50;;;12.17;;
2486;SDS011;1254;49.144;8.212;2023-04-19T14:12:05;14.53;;;13.30;;
2486;SDS011;1254;49.144;8.212;2023-04-19T14:14:34;15.93;;;14.83;;
2486;SDS011;1254;49.144;8.212;2023-04-19T14:17:02;14.90;;;13.50;;
2486;SDS011;1254;49.144;8.212;2023-04-19T14:19:30;18.00;;;15.13;;
2486;SDS011;1254;49.144;8.212;2023-04-19T14:21:58;16.33;;;14.53;;
2486;SDS011;1254;49.144;8.212;2023-04-19T14:24:28;19.30;;;17.27;;
2486;SDS011;1254;49.144;8.212;2023-04-19T14:26:56;15.30;;;13.97;;
2486;SDS011;1254;49.144;8.212;2023-04-19T14:29:24;16.30;;;15.00;;
2486;SDS011;1254;49.144;8.212;2023-04-19T14:31:53;15.63;;;14.33;;
2486;SDS011;1254;49.144;8.212;2023-04-19T14:34:23;16.63;;;15.33;;
2486;SDS011;1254;49.144;8.212;2023-04-19T14:36:52;16.00;;;14.70;;
2486;SDS011;1254;49.144;8.212;2023-04-19T14:39:20;17.10;;;15.60;;
2486;SDS011;1254;49.144;8.212;2023-04-19T14:41:49;16.10;;;14.90;;
2486;SDS011;1254;49.144;8.212;2023-04-19T14:44:18;17.23;;;15.53;;
2486;SDS011;1254;49.144;8.212;2023-04-19T14:46:46;16.87;;;15.67;;
2486;SDS011;1254;49.144;8.212;2023-04-19T14:49:14;17.27;;;15.97;;
2486;SDS011;1254;49.144;8.212;2023-04-19T14:51:42;18.10;;;16.90;;
2486;SDS011;1254;49.144;8.212;2023-04-19T14:54:10;17.77;;;16.57;;
2486;SDS011;1254;49.144;8.212;2023-04-19T14:56:38;18.50;;;16.80;;
2486;SDS011;1254;49.144;8.212;2023-04-19T14:59:08;18.40;;;16.90;;
2486;SDS011;1254;49.144;8.212;2023-04-19T15:01:36;17.43;;;16.20;;
2486;SDS011;1254;49.144;8.212;2023-04-19T15:04:04;17.33;;;16.20;;
2486;SDS011;1254;49.144;8.212;2023-04-19T15:06:33;18.00;;;16.60;;
2486;SDS011;1254;49.144;8.212;2023-04-19T15:09:02;17.27;;;16.07;;
2486;SDS011;1254;49.144;8.212;2023-04-19T15:11:30;18.67;;;17.40;;
2486;SDS011;1254;49.144;8.212;2023-04-19T15:13:58;17.50;;;16.30;;
2486;SDS011;1254;49.144;8.212;2023-04-19T15:16:28;17.50;;;16.20;;